Carnarvon, Australia
Current Conditions -  °F | °C
As of 11:00 AM on Thursday 23 Oct 2014 (Local Time) from YCAR Reporting Station
Few Clouds Few Clouds  
Wind Chill: 75°   Ceiling: Unl
Heat Index: 75°   Visibility: 6mi
Dew Point: 52°   Wind: 15mph
Humidity: 44%   Direction: 210°SSW
Pressure: 30.03"   Gusts: NA
Location:  24.88°S, 113.66°E
Report Text: YCAR 230300Z 21013KT 9999 FEW035 24/11 Q1017
Loading
Personal Weather Stations






























Interactive Weather Map
Tropical Storm Tracking
New forecast layout! Learn more

10-Day Weather Forecast

Advertisements
Track Severe Weather on mobile